createdAt,value
2022-10-13T00:01:24.262Z,10.99
2022-10-13T00:03:53.031Z,10.99
2022-10-13T00:06:26.672Z,10.97
2022-10-13T00:08:56.795Z,10.95
2022-10-13T00:11:27.913Z,10.94
2022-10-13T00:13:58.342Z,10.90
2022-10-13T00:16:27.528Z,10.84
2022-10-13T00:18:55.589Z,10.78
2022-10-13T00:21:27.328Z,10.71
2022-10-13T00:23:55.993Z,10.66
2022-10-13T00:26:26.488Z,10.62
2022-10-13T00:28:55.972Z,10.59
2022-10-13T00:31:27.185Z,10.56
2022-10-13T00:33:56.446Z,10.55
2022-10-13T00:36:25.730Z,10.55
2022-10-13T00:38:54.156Z,10.54
2022-10-13T00:41:21.900Z,10.54
2022-10-13T00:43:57.271Z,10.53
2022-10-13T00:46:28.429Z,10.53
2022-10-13T00:49:12.147Z,10.53
2022-10-13T00:51:44.653Z,10.52
2022-10-13T00:54:18.153Z,10.52
2022-10-13T00:56:47.754Z,10.52
2022-10-13T00:59:29.311Z,10.53
2022-10-13T01:01:59.591Z,10.53
2022-10-13T01:04:32.404Z,10.53
2022-10-13T01:07:01.646Z,10.55
2022-10-13T01:09:36.466Z,10.57
2022-10-13T01:12:23.366Z,10.60
2022-10-13T01:15:19.971Z,10.65
2022-10-13T01:18:00.903Z,10.68
2022-10-13T01:20:31.781Z,10.69
2022-10-13T01:23:12.619Z,10.70
2022-10-13T01:25:46.279Z,10.69
2022-10-13T01:28:52.425Z,10.69
2022-10-13T01:31:43.144Z,10.68
2022-10-13T01:34:35.357Z,10.70
2022-10-13T01:37:31.128Z,10.71
2022-10-13T01:40:36.731Z,10.72
2022-10-13T01:43:10.179Z,10.73
2022-10-13T01:45:44.578Z,10.75
2022-10-13T01:48:15.488Z,10.77
2022-10-13T01:50:44.686Z,10.76
2022-10-13T01:53:14.814Z,10.79
2022-10-13T01:55:50.971Z,10.82
2022-10-13T01:58:19.199Z,10.86
2022-10-13T02:01:01.879Z,10.90
2022-10-13T02:03:58.615Z,10.95
2022-10-13T02:06:38.225Z,10.99
2022-10-13T02:09:19.811Z,11.02
2022-10-13T02:11:55.807Z,11.08
2022-10-13T02:14:27.830Z,11.12
2022-10-13T02:16:57.788Z,11.14
2022-10-13T02:19:27.408Z,11.09
2022-10-13T02:21:57.361Z,11.06
2022-10-13T02:24:25.488Z,11.06
2022-10-13T02:26:54.020Z,11.09
2022-10-13T02:29:22.058Z,11.13
2022-10-13T02:31:49.809Z,11.16
2022-10-13T02:34:17.679Z,11.21
2022-10-13T02:36:48.001Z,11.25
2022-10-13T02:39:16.073Z,11.28
2022-10-13T02:41:44.509Z,11.30
2022-10-13T02:44:12.386Z,11.33
2022-10-13T02:46:43.071Z,11.38
2022-10-13T02:49:11.223Z,11.44
2022-10-13T02:51:40.358Z,11.49
2022-10-13T02:54:08.905Z,11.50
2022-10-13T02:56:36.863Z,11.51
2022-10-13T02:59:04.795Z,11.50
2022-10-13T03:01:33.100Z,11.47
2022-10-13T03:04:00.942Z,11.43
2022-10-13T03:06:28.746Z,11.43
2022-10-13T03:08:56.574Z,11.45
2022-10-13T03:11:24.438Z,11.46
2022-10-13T03:13:52.753Z,11.45
2022-10-13T03:16:20.751Z,11.46
2022-10-13T03:18:48.857Z,11.46
2022-10-13T03:21:16.731Z,11.47
2022-10-13T03:23:44.577Z,11.46
2022-10-13T03:26:12.922Z,11.45
2022-10-13T03:28:41.063Z,11.46
2022-10-13T03:31:12.431Z,11.48
2022-10-13T03:33:41.246Z,11.49
2022-10-13T03:36:13.554Z,11.45
2022-10-13T03:38:43.373Z,11.41
2022-10-13T03:41:15.357Z,11.34
2022-10-13T03:43:44.960Z,11.29
2022-10-13T03:46:15.230Z,11.27
2022-10-13T03:48:44.011Z,11.27
2022-10-13T03:51:18.119Z,11.25
2022-10-13T03:53:48.250Z,11.23
2022-10-13T03:56:20.645Z,11.21
2022-10-13T03:58:57.058Z,11.17
2022-10-13T04:01:27.728Z,11.13
2022-10-13T04:03:56.975Z,11.09
2022-10-13T04:06:26.508Z,11.04
2022-10-13T04:08:55.245Z,11.02
2022-10-13T04:11:24.197Z,11.06
2022-10-13T04:13:53.089Z,11.07
2022-10-13T04:16:26.329Z,11.07
2022-10-13T04:18:57.604Z,11.06
2022-10-13T04:21:26.386Z,11.09
2022-10-13T04:23:57.449Z,11.14
2022-10-13T04:26:29.682Z,11.22
2022-10-13T04:28:59.447Z,11.28
2022-10-13T04:31:29.382Z,11.33
2022-10-13T04:33:58.236Z,11.37
2022-10-13T04:36:26.824Z,11.39
2022-10-13T04:38:55.591Z,11.39
2022-10-13T04:41:24.210Z,11.35
2022-10-13T04:43:53.467Z,11.35
2022-10-13T04:46:26.761Z,11.34
2022-10-13T04:48:57.035Z,11.29
2022-10-13T04:51:30.215Z,11.29
2022-10-13T04:54:01.224Z,11.31
2022-10-13T04:56:29.691Z,11.35
2022-10-13T04:59:06.019Z,11.39
2022-10-13T05:01:36.116Z,11.42
2022-10-13T05:04:07.526Z,11.44
2022-10-13T05:06:59.010Z,11.45
2022-10-13T05:09:28.013Z,11.47
2022-10-13T05:11:56.080Z,11.45
2022-10-13T05:14:24.832Z,11.40
2022-10-13T05:16:52.856Z,11.34
2022-10-13T05:19:20.900Z,11.29
2022-10-13T05:21:50.446Z,11.29
2022-10-13T05:24:20.794Z,11.29
2022-10-13T05:26:50.759Z,11.30
2022-10-13T05:29:19.088Z,11.30
2022-10-13T05:31:47.387Z,11.28
2022-10-13T05:34:15.494Z,11.26
2022-10-13T05:36:43.645Z,11.23
2022-10-13T05:39:11.708Z,11.23
2022-10-13T05:41:39.809Z,11.23
2022-10-13T05:44:16.726Z,11.22
2022-10-13T05:46:54.571Z,11.24
2022-10-13T05:49:22.965Z,11.29
2022-10-13T05:51:55.078Z,11.35
2022-10-13T05:54:35.384Z,11.43
2022-10-13T05:57:08.887Z,11.50
2022-10-13T05:59:50.621Z,11.57
2022-10-13T06:02:21.260Z,11.61
2022-10-13T06:04:53.751Z,11.57
2022-10-13T06:07:22.927Z,11.54
2022-10-13T06:09:54.853Z,11.54
2022-10-13T06:12:23.161Z,11.60
2022-10-13T06:14:51.566Z,11.69
2022-10-13T06:17:19.759Z,11.81
2022-10-13T06:19:48.629Z,11.89
2022-10-13T06:22:18.458Z,11.95
2022-10-13T06:24:47.990Z,12.05
2022-10-13T06:27:15.961Z,12.15
2022-10-13T06:29:44.924Z,12.22
2022-10-13T06:32:13.143Z,12.18
2022-10-13T06:34:41.117Z,12.15
2022-10-13T06:37:09.482Z,12.15
2022-10-13T06:39:37.940Z,12.11
2022-10-13T06:42:06.118Z,12.07
2022-10-13T06:44:39.049Z,12.10
2022-10-13T06:47:07.275Z,12.11
2022-10-13T06:49:35.277Z,12.11
2022-10-13T06:52:04.821Z,12.12
2022-10-13T06:54:32.890Z,12.09
2022-10-13T06:57:00.838Z,12.02
2022-10-13T06:59:28.920Z,12.00
2022-10-13T07:01:56.936Z,12.06
2022-10-13T07:04:26.307Z,12.15
2022-10-13T07:06:56.377Z,12.22
2022-10-13T07:09:24.245Z,12.17
2022-10-13T07:11:52.383Z,12.15
2022-10-13T07:14:20.413Z,12.17
2022-10-13T07:16:49.146Z,12.18
2022-10-13T07:19:17.238Z,12.22
2022-10-13T07:21:45.088Z,12.28
2022-10-13T07:24:13.388Z,12.38
2022-10-13T07:26:41.478Z,12.47
2022-10-13T07:29:10.113Z,12.54
2022-10-13T07:31:38.151Z,12.59
2022-10-13T07:34:06.878Z,12.58
2022-10-13T07:36:35.687Z,12.56
2022-10-13T07:39:04.182Z,12.57
2022-10-13T07:41:33.667Z,12.68
2022-10-13T07:44:01.811Z,12.77
2022-10-13T07:46:29.909Z,12.85
2022-10-13T07:48:58.408Z,12.90
2022-10-13T07:51:26.654Z,12.91
2022-10-13T07:53:56.135Z,12.94
2022-10-13T07:56:24.111Z,12.97
2022-10-13T07:58:52.408Z,12.98
2022-10-13T08:01:20.739Z,12.96
2022-10-13T08:03:50.352Z,12.92
2022-10-13T08:06:19.711Z,12.87
2022-10-13T08:08:49.148Z,12.87
2022-10-13T08:11:21.054Z,12.82
2022-10-13T08:13:51.429Z,12.81
2022-10-13T08:16:23.663Z,12.80
2022-10-13T08:18:53.166Z,12.79
2022-10-13T08:21:57.507Z,12.82
2022-10-13T08:24:16.362Z,12.88
2022-10-13T08:26:46.637Z,12.89
2022-10-13T08:29:24.122Z,12.83
2022-10-13T08:31:53.990Z,12.78
2022-10-13T08:34:24.270Z,12.75
2022-10-13T08:36:56.517Z,12.73
2022-10-13T08:39:25.661Z,12.74
2022-10-13T08:42:00.137Z,12.78
2022-10-13T08:45:16.168Z,12.81
2022-10-13T08:47:47.601Z,12.86
2022-10-13T08:50:19.978Z,12.94
2022-10-13T08:52:54.149Z,13.03
2022-10-13T08:55:33.449Z,13.16
2022-10-13T08:58:06.588Z,13.18
2022-10-13T09:00:35.114Z,13.16
2022-10-13T09:03:22.580Z,13.17
2022-10-13T09:06:00.783Z,13.22
2022-10-13T09:08:53.478Z,13.28
2022-10-13T09:11:21.917Z,13.32
2022-10-13T09:13:55.055Z,13.35
2022-10-13T09:16:34.372Z,13.41
2022-10-13T09:19:25.248Z,13.48
2022-10-13T09:21:59.135Z,13.59
2022-10-13T09:24:27.841Z,13.74
2022-10-13T09:27:07.694Z,13.84
2022-10-13T09:29:40.715Z,13.77
2022-10-13T09:32:21.772Z,13.71
2022-10-13T09:34:52.045Z,13.72
2022-10-13T09:37:22.102Z,13.76
2022-10-13T09:40:20.970Z,13.83
2022-10-13T09:42:54.312Z,13.89
2022-10-13T09:45:26.426Z,13.99
2022-10-13T09:48:07.959Z,14.07
2022-10-13T09:50:36.568Z,14.09
2022-10-13T09:53:17.126Z,14.11
2022-10-13T09:55:49.912Z,14.15
2022-10-13T09:58:32.444Z,14.24
2022-10-13T10:01:02.412Z,14.37
2022-10-13T10:03:36.345Z,14.46
2022-10-13T10:06:13.313Z,14.57
2022-10-13T10:09:08.392Z,14.73
2022-10-13T10:11:44.018Z,14.87
2022-10-13T10:14:28.886Z,15.02
2022-10-13T10:17:44.178Z,15.20
2022-10-13T10:20:59.498Z,15.40
2022-10-13T10:23:54.525Z,15.41
2022-10-13T10:26:32.646Z,15.59
2022-10-13T10:29:01.747Z,15.75
2022-10-13T10:31:48.980Z,15.87
2022-10-13T10:34:47.013Z,15.85
2022-10-13T10:37:41.780Z,15.79
2022-10-13T10:40:13.125Z,15.86
2022-10-13T10:42:52.135Z,15.93
2022-10-13T10:45:27.713Z,16.02
2022-10-13T10:48:32.242Z,16.08
2022-10-13T10:51:02.352Z,16.08
2022-10-13T10:53:34.374Z,16.09
2022-10-13T10:56:15.872Z,16.01
2022-10-13T10:59:04.773Z,15.96
2022-10-13T11:01:46.203Z,15.88
2022-10-13T11:04:41.332Z,15.84
2022-10-13T11:07:45.929Z,15.67
2022-10-13T11:10:14.429Z,15.64
2022-10-13T11:12:52.002Z,15.60
2022-10-13T11:15:41.632Z,15.56
2022-10-13T11:18:48.733Z,15.52
2022-10-13T11:21:17.425Z,15.46
2022-10-13T11:23:49.391Z,15.46
2022-10-13T11:26:31.336Z,15.40
2022-10-13T11:29:00.198Z,15.37
2022-10-13T11:31:35.962Z,15.34
2022-10-13T11:34:24.680Z,15.26
2022-10-13T11:36:58.980Z,15.19
2022-10-13T11:42:37.961Z,15.25
2022-10-13T11:45:34.687Z,15.31
2022-10-13T11:48:26.305Z,15.38
2022-10-13T11:51:23.849Z,15.39
2022-10-13T11:54:10.670Z,15.36
2022-10-13T11:56:49.001Z,15.38
2022-10-13T11:59:34.057Z,15.40
2022-10-13T12:02:16.963Z,15.44
2022-10-13T12:05:00.820Z,15.48
2022-10-13T12:07:35.156Z,15.48
2022-10-13T12:10:08.247Z,15.53
2022-10-13T12:12:37.079Z,15.59
2022-10-13T12:15:34.062Z,15.72
2022-10-13T12:18:19.643Z,15.95
2022-10-13T12:20:56.812Z,16.17
2022-10-13T12:23:26.935Z,16.30
2022-10-13T12:25:58.975Z,16.36
2022-10-13T12:28:47.202Z,16.37
2022-10-13T12:31:27.940Z,16.47
2022-10-13T12:33:59.612Z,16.50
2022-10-13T12:36:31.282Z,16.47
2022-10-13T12:39:02.975Z,16.49
2022-10-13T12:41:37.673Z,16.60
2022-10-13T12:44:07.989Z,16.64
2022-10-13T12:46:39.190Z,16.63
2022-10-13T12:49:16.237Z,16.62
2022-10-13T12:51:49.325Z,16.55
2022-10-13T12:54:26.568Z,16.42
2022-10-13T12:57:04.245Z,16.24
2022-10-13T12:59:34.964Z,16.14
2022-10-13T13:02:32.884Z,16.06
2022-10-13T13:05:02.137Z,15.93
2022-10-13T13:07:37.413Z,15.81
2022-10-13T13:10:09.350Z,15.74
2022-10-13T13:12:39.008Z,15.72
2022-10-13T13:15:41.627Z,15.76
2022-10-13T13:18:28.404Z,15.77
2022-10-13T13:20:57.396Z,15.76
2022-10-13T13:23:33.564Z,15.81
2022-10-13T13:26:15.410Z,15.81
2022-10-13T13:28:48.196Z,15.80
2022-10-13T13:31:19.461Z,15.77
2022-10-13T13:33:49.791Z,15.78
2022-10-13T13:36:21.317Z,15.91
2022-10-13T13:38:54.510Z,15.98
2022-10-13T13:41:27.849Z,16.03
2022-10-13T13:43:56.298Z,16.04
2022-10-13T13:46:27.831Z,16.05
2022-10-13T13:48:56.535Z,15.99
2022-10-13T13:51:25.851Z,15.84
2022-10-13T13:53:54.909Z,15.76
2022-10-13T13:56:24.270Z,15.74
2022-10-13T13:58:53.031Z,15.76
2022-10-13T14:01:23.204Z,15.82
2022-10-13T14:03:52.066Z,15.87
2022-10-13T14:06:22.306Z,15.93
2022-10-13T14:08:51.155Z,15.92
2022-10-13T14:11:19.727Z,15.87
2022-10-13T14:13:48.309Z,15.84
2022-10-13T14:16:25.292Z,15.77
2022-10-13T14:18:56.414Z,15.70
2022-10-13T14:21:26.082Z,15.64
2022-10-13T14:23:59.175Z,15.59
2022-10-13T14:26:28.049Z,15.56
2022-10-13T14:28:58.527Z,15.52
2022-10-13T14:31:27.048Z,15.46
2022-10-13T14:33:55.230Z,15.42
2022-10-13T14:36:25.818Z,15.35
2022-10-13T14:38:55.173Z,15.30
2022-10-13T14:41:23.680Z,15.33
2022-10-13T14:43:56.249Z,15.37
2022-10-13T14:46:25.741Z,15.41
2022-10-13T14:48:56.303Z,15.43
2022-10-13T14:51:25.556Z,15.43
2022-10-13T14:53:54.337Z,15.41
2022-10-13T14:56:26.338Z,15.40
2022-10-13T14:59:03.726Z,15.37
2022-10-13T15:01:38.754Z,15.30
2022-10-13T15:04:08.276Z,15.20
2022-10-13T15:06:40.768Z,15.11
2022-10-13T15:09:10.828Z,15.04
2022-10-13T15:11:39.526Z,14.98
2022-10-13T15:14:10.720Z,14.91
2022-10-13T15:16:39.089Z,14.80
2022-10-13T15:19:07.595Z,14.72
2022-10-13T15:21:36.613Z,14.63
2022-10-13T15:24:05.827Z,14.54
2022-10-13T15:26:36.265Z,14.44
2022-10-13T15:29:05.553Z,14.36
2022-10-13T15:31:33.876Z,14.28
2022-10-13T15:34:02.610Z,14.20
2022-10-13T15:36:31.124Z,14.13
2022-10-13T15:38:59.358Z,14.08
2022-10-13T15:41:27.594Z,14.01
2022-10-13T15:43:55.522Z,13.96
2022-10-13T15:46:26.391Z,13.90
2022-10-13T15:48:55.741Z,13.84
2022-10-13T15:51:27.185Z,13.78
2022-10-13T15:53:56.385Z,13.73
2022-10-13T15:56:24.974Z,13.68
2022-10-13T15:58:54.232Z,13.63
2022-10-13T16:01:22.978Z,13.58
2022-10-13T16:03:55.384Z,13.52
2022-10-13T16:06:25.030Z,13.46
2022-10-13T16:08:54.142Z,13.36
2022-10-13T16:11:23.860Z,13.26
2022-10-13T16:13:52.961Z,13.17
2022-10-13T16:16:22.473Z,13.08
2022-10-13T16:18:51.632Z,12.99
2022-10-13T16:21:23.302Z,12.92
2022-10-13T16:23:52.473Z,12.85
2022-10-13T16:26:20.907Z,12.76
2022-10-13T16:28:49.222Z,12.68
2022-10-13T16:31:17.482Z,12.62
2022-10-13T16:33:46.462Z,12.56
2022-10-13T16:36:17.972Z,12.50
2022-10-13T16:38:47.335Z,12.45
2022-10-13T16:41:18.672Z,12.40
2022-10-13T16:43:48.626Z,12.38
2022-10-13T16:46:19.419Z,12.37
2022-10-13T16:48:48.607Z,12.37
2022-10-13T16:51:21.182Z,12.37
2022-10-13T16:53:51.616Z,12.37
2022-10-13T16:56:22.564Z,12.39
2022-10-13T16:58:54.933Z,12.41
2022-10-13T17:01:24.662Z,12.44
2022-10-13T17:03:53.582Z,12.46
2022-10-13T17:06:25.344Z,12.47
2022-10-13T17:09:03.348Z,12.51
2022-10-13T17:11:37.520Z,12.52
2022-10-13T17:14:06.972Z,12.52
2022-10-13T17:16:36.152Z,12.52
2022-10-13T17:19:05.293Z,12.53
2022-10-13T17:21:40.153Z,12.54
2022-10-13T17:24:09.930Z,12.52
2022-10-13T17:26:38.127Z,12.51
2022-10-13T17:29:06.305Z,12.49
2022-10-13T17:31:34.437Z,12.46
2022-10-13T17:34:02.812Z,12.40
2022-10-13T17:36:34.634Z,12.33
2022-10-13T17:39:11.598Z,12.25
2022-10-13T17:41:41.243Z,12.18
2022-10-13T17:44:10.193Z,12.14
2022-10-13T17:46:39.267Z,12.10
2022-10-13T17:49:12.917Z,12.05
2022-10-13T17:51:42.943Z,11.96
2022-10-13T17:54:15.994Z,11.88
2022-10-13T17:56:48.497Z,11.82
2022-10-13T17:59:18.166Z,11.76
2022-10-13T18:01:46.471Z,11.73
2022-10-13T18:04:17.952Z,11.67
2022-10-13T18:06:46.972Z,11.61
2022-10-13T18:09:18.738Z,11.54
2022-10-13T18:11:50.670Z,11.46
2022-10-13T18:14:21.918Z,11.36
2022-10-13T18:16:53.750Z,11.26
2022-10-13T18:19:21.901Z,11.15
2022-10-13T18:21:50.453Z,11.06
2022-10-13T18:24:18.626Z,10.99
2022-10-13T18:26:46.796Z,10.95
2022-10-13T18:29:14.840Z,10.93
2022-10-13T18:31:43.544Z,10.90
2022-10-13T18:34:14.940Z,10.89
2022-10-13T18:36:48.294Z,10.90
2022-10-13T18:39:20.237Z,10.92
2022-10-13T18:41:50.367Z,10.93
2022-10-13T18:44:20.108Z,10.93
2022-10-13T18:46:50.891Z,10.92
2022-10-13T18:49:23.391Z,10.92
2022-10-13T18:51:52.083Z,10.91
2022-10-13T18:54:20.382Z,10.88
2022-10-13T18:56:48.280Z,10.86
2022-10-13T18:59:17.047Z,10.85
2022-10-13T19:01:45.176Z,10.86
2022-10-13T19:04:14.930Z,10.85
2022-10-13T19:06:43.949Z,10.84
2022-10-13T19:09:16.023Z,10.83
2022-10-13T19:11:44.539Z,10.80
2022-10-13T19:14:15.345Z,10.78
2022-10-13T19:16:44.248Z,10.74
2022-10-13T19:19:13.016Z,10.69
2022-10-13T19:21:42.170Z,10.63
2022-10-13T19:24:11.048Z,10.56
2022-10-13T19:26:39.079Z,10.49
2022-10-13T19:29:10.971Z,10.41
2022-10-13T19:31:41.893Z,10.32
2022-10-13T19:34:13.501Z,10.26
2022-10-13T19:36:45.286Z,10.19
2022-10-13T19:39:23.494Z,10.13
2022-10-13T19:41:53.384Z,10.07
2022-10-13T19:44:23.532Z,10.03
2022-10-13T19:46:53.177Z,10.02
2022-10-13T19:49:25.286Z,10.00
2022-10-13T19:51:55.172Z,9.97
2022-10-13T19:54:27.949Z,9.97
2022-10-13T19:56:58.350Z,9.97
2022-10-13T19:59:26.441Z,9.95
2022-10-13T20:01:55.967Z,9.92
2022-10-13T20:04:24.048Z,9.89
2022-10-13T20:06:51.914Z,9.88
2022-10-13T20:09:20.880Z,9.88
2022-10-13T20:11:51.284Z,9.89
2022-10-13T20:14:19.623Z,9.88
2022-10-13T20:16:48.373Z,9.87
2022-10-13T20:19:19.987Z,9.87
2022-10-13T20:21:51.854Z,9.89
2022-10-13T20:24:24.119Z,9.92
2022-10-13T20:26:54.184Z,9.94
2022-10-13T20:29:23.721Z,9.92
2022-10-13T20:31:51.998Z,9.90
2022-10-13T20:34:20.349Z,9.93
2022-10-13T20:36:51.356Z,9.96
2022-10-13T20:39:20.458Z,9.96
2022-10-13T20:41:48.310Z,9.96
2022-10-13T20:44:16.112Z,9.96
2022-10-13T20:46:44.135Z,9.96
2022-10-13T20:49:13.329Z,9.96
2022-10-13T20:51:42.816Z,9.94
2022-10-13T20:54:13.800Z,9.92
2022-10-13T20:56:43.077Z,9.89
2022-10-13T20:59:14.596Z,9.89
2022-10-13T21:01:43.111Z,9.91
2022-10-13T21:04:11.572Z,9.93
2022-10-13T21:06:41.614Z,9.95
2022-10-13T21:09:10.389Z,9.97
2022-10-13T21:11:40.372Z,9.99
2022-10-13T21:14:10.098Z,10.01
2022-10-13T21:16:40.638Z,10.05
2022-10-13T21:19:12.883Z,10.08
2022-10-13T21:21:41.222Z,10.12
2022-10-13T21:24:10.451Z,10.19
2022-10-13T21:26:39.786Z,10.25
2022-10-13T21:29:15.527Z,10.31
2022-10-13T21:31:44.152Z,10.37
2022-10-13T21:34:12.647Z,10.38
2022-10-13T21:36:44.656Z,10.43
2022-10-13T21:39:14.569Z,10.49
2022-10-13T21:41:42.941Z,10.54
2022-10-13T21:44:14.663Z,10.59
2022-10-13T21:46:42.916Z,10.58
2022-10-13T21:49:11.127Z,10.57
2022-10-13T21:51:40.918Z,10.57
2022-10-13T21:54:13.369Z,10.54
2022-10-13T21:56:42.387Z,10.53
2022-10-13T21:59:12.652Z,10.56
2022-10-13T22:01:41.867Z,10.58
2022-10-13T22:04:14.444Z,10.55
2022-10-13T22:06:42.957Z,10.55
2022-10-13T22:09:11.350Z,10.59
2022-10-13T22:11:39.975Z,10.62
2022-10-13T22:14:12.558Z,10.66
2022-10-13T22:16:46.580Z,10.71
2022-10-13T22:19:16.571Z,10.76
2022-10-13T22:21:49.270Z,10.81
2022-10-13T22:24:20.333Z,10.85
2022-10-13T22:26:49.874Z,10.86
2022-10-13T22:29:20.885Z,10.91
2022-10-13T22:31:51.401Z,10.94
2022-10-13T22:34:19.698Z,10.93
2022-10-13T22:36:48.435Z,10.88
2022-10-13T22:39:16.658Z,10.84
2022-10-13T22:41:45.069Z,10.84
2022-10-13T22:44:13.637Z,10.88
2022-10-13T22:46:42.151Z,10.91
2022-10-13T22:49:15.002Z,10.93
2022-10-13T22:51:43.106Z,10.94
2022-10-13T22:54:11.233Z,10.93
2022-10-13T22:56:40.687Z,10.89
2022-10-13T22:59:09.435Z,10.87
2022-10-13T23:01:37.675Z,10.85
2022-10-13T23:04:06.143Z,10.81
2022-10-13T23:06:35.608Z,10.72
2022-10-13T23:09:08.318Z,10.63
2022-10-13T23:11:36.733Z,10.56
2022-10-13T23:14:07.111Z,10.53
2022-10-13T23:16:35.665Z,10.50
2022-10-13T23:19:04.314Z,10.48
2022-10-13T23:21:32.517Z,10.50
2022-10-13T23:24:03.427Z,10.52
2022-10-13T23:26:32.608Z,10.52
2022-10-13T23:29:02.006Z,10.53
2022-10-13T23:31:30.581Z,10.54
2022-10-13T23:33:58.969Z,10.56
2022-10-13T23:36:30.098Z,10.59
2022-10-13T23:39:02.133Z,10.61
2022-10-13T23:41:31.395Z,10.62
2022-10-13T23:43:59.899Z,10.64
2022-10-13T23:46:28.849Z,10.66
2022-10-13T23:48:57.212Z,10.67
2022-10-13T23:51:25.864Z,10.71
2022-10-13T23:53:54.510Z,10.73
2022-10-13T23:56:23.330Z,10.74
2022-10-13T23:58:51.916Z,10.74
